Time;durP1;ratioP1;P1;durP2;ratioP2;P2;SDS_P1;SDS_P2;PMS_P1;PMS_P2;Temp;Humidity;BMP_temperature;BMP_pressure;BME280_temperature;BME280_humidity;BME280_pressure;Samples;Min_cycle;Max_cycle;Signal;HPM_P1;HPM_P2
2023/05/28 00:01:08;;;;;;;5.82;2.50;;;14.50;78.40;;;;;;5046013;28;20228;-74
2023/05/28 00:03:57;;;;;;;8.68;2.63;;;14.50;77.10;;;;;;5062345;28;20222;-72
2023/05/28 00:06:48;;;;;;;5.18;2.80;;;14.60;78.00;;;;;;5081743;28;20238;-77
2023/05/28 00:09:37;;;;;;;5.45;2.42;;;14.60;78.10;;;;;;5076011;28;20323;-73
2023/05/28 00:12:26;;;;;;;4.13;2.15;;;14.40;77.30;;;;;;5060637;28;20286;-74
2023/05/28 00:15:15;;;;;;;7.65;2.80;;;14.40;79.20;;;;;;5077385;28;20314;-73
2023/05/28 00:18:04;;;;;;;6.85;2.38;;;14.40;77.40;;;;;;5062769;28;20292;-73
2023/05/28 00:20:53;;;;;;;9.93;2.67;;;14.40;76.50;;;;;;5061297;28;20250;-72
2023/05/28 00:23:43;;;;;;;9.68;2.63;;;14.30;75.80;;;;;;5062138;28;20380;-71
2023/05/28 00:26:37;;;;;;;4.43;2.28;;;14.30;76.50;;;;;;5057923;28;20228;-73
2023/05/28 00:29:26;;;;;;;4.35;2.28;;;14.30;77.50;;;;;;5061637;28;20234;-72
2023/05/28 00:32:15;;;;;;;3.20;2.10;;;14.30;76.50;;;;;;5067690;28;20227;-72
2023/05/28 00:35:05;;;;;;;5.05;2.20;;;14.30;76.70;;;;;;5060574;28;20231;-73
2023/05/28 00:37:54;;;;;;;7.00;2.42;;;14.20;76.30;;;;;;5058687;28;20225;-73
2023/05/28 00:40:45;;;;;;;6.28;2.28;;;14.20;78.50;;;;;;5057073;28;20236;-74
2023/05/28 00:43:35;;;;;;;7.10;2.60;;;14.10;79.70;;;;;;5063851;28;20223;-73
2023/05/28 00:46:25;;;;;;;7.05;2.58;;;14.00;78.50;;;;;;5053017;28;20216;-74
2023/05/28 00:49:14;;;;;;;5.32;2.40;;;14.00;77.30;;;;;;5061930;28;20565;-74
2023/05/28 00:52:28;;;;;;;6.50;2.38;;;14.10;79.40;;;;;;5062748;28;20363;-73
2023/05/28 00:55:17;;;;;;;5.28;2.22;;;14.00;77.40;;;;;;5064211;28;20342;-74
2023/05/28 00:58:07;;;;;;;10.88;2.40;;;13.90;77.30;;;;;;5061719;28;20216;-73
2023/05/28 01:00:57;;;;;;;3.42;2.25;;;13.90;78.40;;;;;;5072994;28;20227;-73
2023/05/28 01:03:46;;;;;;;4.93;2.20;;;13.90;77.70;;;;;;5056138;28;20220;-72
2023/05/28 01:06:37;;;;;;;6.55;2.42;;;14.10;80.30;;;;;;5057075;28;20224;-74
2023/05/28 01:09:27;;;;;;;8.43;2.38;;;14.10;77.70;;;;;;5063657;28;20306;-75
2023/05/28 01:12:16;;;;;;;8.68;2.20;;;14.10;79.00;;;;;;5039128;28;20227;-74
2023/05/28 01:15:08;;;;;;;4.50;2.22;;;14.00;78.10;;;;;;5068430;28;20216;-74
2023/05/28 01:17:58;;;;;;;9.73;2.17;;;14.00;78.00;;;;;;5066136;28;20226;-75
2023/05/28 01:20:48;;;;;;;5.80;2.20;;;13.80;76.40;;;;;;5060320;28;20311;-75
2023/05/28 01:23:45;;;;;;;5.72;2.28;;;13.70;78.90;;;;;;5054557;28;20982;-75
2023/05/28 01:26:35;;;;;;;6.22;2.00;;;13.90;80.10;;;;;;5056202;28;20220;-73
2023/05/28 01:29:23;;;;;;;3.45;2.10;;;13.70;77.70;;;;;;5048385;28;20717;-75
2023/05/28 01:32:12;;;;;;;5.75;2.15;;;13.70;77.80;;;;;;5048480;28;20301;-74
2023/05/28 01:35:01;;;;;;;3.47;2.20;;;13.70;80.00;;;;;;5057052;28;20767;-74
2023/05/28 01:37:57;;;;;;;5.43;2.20;;;13.70;77.80;;;;;;5052046;28;20254;-73
2023/05/28 01:40:49;;;;;;;5.50;2.38;;;13.60;77.70;;;;;;5055445;28;20234;-73
2023/05/28 01:43:38;;;;;;;6.13;2.13;;;13.50;79.30;;;;;;5050170;28;20221;-74
2023/05/28 01:46:27;;;;;;;5.65;2.17;;;13.40;78.20;;;;;;5056208;28;20317;-73
2023/05/28 01:49:17;;;;;;;4.22;1.90;;;13.50;78.90;;;;;;5063837;28;20277;-74
2023/05/28 01:52:07;;;;;;;3.40;2.15;;;13.60;78.10;;;;;;5064851;28;20227;-73
2023/05/28 01:54:56;;;;;;;6.10;2.03;;;13.40;79.30;;;;;;5059629;28;20216;-72
2023/05/28 01:57:46;;;;;;;4.05;1.88;;;13.40;77.30;;;;;;5059223;28;20254;-73
2023/05/28 02:00:42;;;;;;;7.32;2.08;;;13.50;78.50;;;;;;5055396;28;20259;-74
2023/05/28 02:03:31;;;;;;;4.78;2.00;;;13.40;78.90;;;;;;5049195;28;20825;-73
2023/05/28 02:06:20;;;;;;;5.95;2.00;;;13.50;78.30;;;;;;5063601;28;20217;-74
2023/05/28 02:09:09;;;;;;;3.50;2.20;;;13.60;80.40;;;;;;5052694;28;20224;-71
2023/05/28 02:12:02;;;;;;;4.32;2.03;;;13.50;78.20;;;;;;5054145;28;20220;-74
2023/05/28 02:14:53;;;;;;;3.60;2.00;;;13.50;78.00;;;;;;5059926;28;20216;-78
2023/05/28 02:17:43;;;;;;;8.88;2.58;;;13.40;78.70;;;;;;5069183;28;20587;-79
2023/05/28 02:20:32;;;;;;;6.07;2.00;;;13.50;78.80;;;;;;5055638;28;20672;-77
2023/05/28 02:23:21;;;;;;;3.40;1.90;;;13.50;79.90;;;;;;5067393;28;20228;-78
2023/05/28 02:26:11;;;;;;;8.15;2.00;;;13.50;78.80;;;;;;5057574;28;20247;-77
2023/05/28 02:28:59;;;;;;;4.47;1.95;;;13.50;80.10;;;;;;5058403;28;20254;-78
2023/05/28 02:31:49;;;;;;;3.50;2.00;;;13.50;80.00;;;;;;5057916;28;20282;-78
2023/05/28 02:34:40;;;;;;;6.80;2.20;;;13.50;79.20;;;;;;5057492;28;20215;-78
2023/05/28 02:37:29;;;;;;;3.47;2.17;;;13.40;79.70;;;;;;5057975;28;20227;-75
2023/05/28 02:40:19;;;;;;;6.05;2.33;;;13.40;80.70;;;;;;5058403;28;20272;-75
2023/05/28 02:43:08;;;;;;;3.85;2.17;;;13.40;78.90;;;;;;5060805;28;20614;-74
2023/05/28 02:45:56;;;;;;;7.38;2.13;;;13.20;80.40;;;;;;5062703;28;21070;-74
2023/05/28 02:48:47;;;;;;;3.35;2.10;;;13.40;81.00;;;;;;5055049;28;20216;-74
2023/05/28 02:51:39;;;;;;;6.07;2.38;;;13.40;80.60;;;;;;5058991;28;20224;-75
2023/05/28 02:54:47;;;;;;;6.22;2.35;;;13.30;80.80;;;;;;5058938;28;20224;-75
2023/05/28 02:57:35;;;;;;;5.90;1.98;;;13.30;80.30;;;;;;5065586;28;20231;-74
2023/05/28 03:00:26;;;;;;;4.40;2.13;;;13.30;80.20;;;;;;5060799;28;20229;-73
2023/05/28 03:03:16;;;;;;;5.20;2.15;;;13.30;80.20;;;;;;5055309;28;20702;-74
2023/05/28 03:06:08;;;;;;;5.25;2.30;;;13.40;81.40;;;;;;5057706;28;20929;-74
2023/05/28 03:09:06;;;;;;;8.30;2.17;;;13.30;79.40;;;;;;5055965;28;20225;-73
2023/05/28 03:11:54;;;;;;;5.43;2.22;;;13.30;80.10;;;;;;5058674;28;20248;-74
2023/05/28 03:14:43;;;;;;;6.18;2.10;;;13.40;82.30;;;;;;5061268;28;20219;-74
2023/05/28 03:17:32;;;;;;;7.25;2.30;;;13.30;80.80;;;;;;5063852;28;20225;-69
2023/05/28 03:20:21;;;;;;;6.93;2.17;;;13.40;81.60;;;;;;5053834;28;20239;-74
2023/05/28 03:23:12;;;;;;;7.00;2.28;;;13.30;80.30;;;;;;5048974;28;20224;-75
2023/05/28 03:26:17;;;;;;;8.57;2.40;;;13.30;82.80;;;;;;5039468;28;20314;-75
2023/05/28 03:29:06;;;;;;;5.53;2.72;;;13.30;82.00;;;;;;5063580;28;20224;-75
2023/05/28 03:32:12;;;;;;;6.53;2.75;;;13.50;83.00;;;;;;5068860;28;20231;-75
2023/05/28 03:35:02;;;;;;;9.02;2.70;;;13.70;81.20;;;;;;5062396;28;20316;-75
2023/05/28 03:37:52;;;;;;;4.25;2.40;;;13.60;80.70;;;;;;5059512;28;20813;-75
2023/05/28 03:40:44;;;;;;;9.18;2.50;;;13.60;80.80;;;;;;5059501;28;20232;-75
2023/05/28 03:43:35;;;;;;;4.43;2.08;;;13.60;80.30;;;;;;5047707;28;20460;-73
2023/05/28 03:46:24;;;;;;;5.10;2.35;;;13.60;81.10;;;;;;5066305;28;20237;-74
2023/05/28 03:49:13;;;;;;;6.00;2.63;;;13.60;80.90;;;;;;5063108;28;20286;-73
2023/05/28 03:52:02;;;;;;;3.50;2.05;;;13.60;82.10;;;;;;5050419;28;20321;-75
2023/05/28 03:55:03;;;;;;;4.93;2.60;;;13.70;81.80;;;;;;5062070;28;20228;-75
2023/05/28 03:57:54;;;;;;;4.95;2.20;;;13.70;81.60;;;;;;5061807;28;20303;-74
2023/05/28 04:00:43;;;;;;;5.70;2.30;;;13.60;79.90;;;;;;5062074;28;20236;-75
2023/05/28 04:03:32;;;;;;;5.28;2.03;;;13.70;81.10;;;;;;5059234;28;20219;-74
2023/05/28 04:06:22;;;;;;;5.75;2.40;;;13.90;80.60;;;;;;5060716;28;20223;-75
2023/05/28 04:09:12;;;;;;;7.03;2.35;;;13.90;80.60;;;;;;5054097;28;20224;-75
2023/05/28 04:12:01;;;;;;;6.88;2.10;;;13.90;81.50;;;;;;5056278;28;20367;-74
2023/05/28 04:14:51;;;;;;;6.15;2.38;;;14.10;81.00;;;;;;5057325;28;20227;-74
2023/05/28 04:17:40;;;;;;;5.57;2.20;;;14.10;81.20;;;;;;5069861;28;20302;-74
2023/05/28 04:20:30;;;;;;;6.10;2.42;;;14.00;80.10;;;;;;5060643;28;20354;-75
2023/05/28 04:23:21;;;;;;;5.38;2.13;;;14.20;80.60;;;;;;5054390;28;20691;-75
2023/05/28 04:26:10;;;;;;;4.90;2.53;;;14.40;80.30;;;;;;5046914;28;20303;-75
2023/05/28 04:29:00;;;;;;;3.65;2.20;;;14.40;80.50;;;;;;5062664;28;20227;-75
2023/05/28 04:31:51;;;;;;;4.15;1.83;;;14.40;78.80;;;;;;5060992;28;20288;-76
2023/05/28 04:34:42;;;;;;;5.57;1.90;;;14.40;79.60;;;;;;5055326;28;20262;-76
2023/05/28 04:37:33;;;;;;;6.93;2.03;;;14.60;79.30;;;;;;5063038;28;20216;-76
2023/05/28 04:40:22;;;;;;;5.57;2.00;;;14.40;76.30;;;;;;5059384;28;20722;-75
2023/05/28 04:43:11;;;;;;;4.65;2.03;;;14.50;75.80;;;;;;5058696;28;20232;-76
2023/05/28 04:46:03;;;;;;;6.57;2.10;;;14.40;75.10;;;;;;5069121;28;20224;-75
2023/05/28 04:48:54;;;;;;;8.93;2.30;;;14.40;75.70;;;;;;5055896;28;20223;-75
2023/05/28 04:51:43;;;;;;;5.80;1.88;;;14.70;76.30;;;;;;5060474;28;20224;-75
2023/05/28 04:54:32;;;;;;;5.15;1.80;;;14.90;77.70;;;;;;5063950;28;20319;-75
2023/05/28 04:57:20;;;;;;;7.45;1.77;;;14.90;76.00;;;;;;5055134;28;20224;-74
2023/05/28 05:00:13;;;;;;;3.58;1.58;;;14.90;75.50;;;;;;5062706;28;20213;-74
2023/05/28 05:03:02;;;;;;;4.68;2.00;;;15.00;76.40;;;;;;5063944;28;20273;-74
2023/05/28 05:05:55;;;;;;;12.48;1.95;;;15.10;75.40;;;;;;5062244;28;20332;-74
2023/05/28 05:08:44;;;;;;;6.40;1.85;;;15.20;75.00;;;;;;5059815;28;20273;-73
2023/05/28 05:11:35;;;;;;;4.60;2.13;;;15.20;74.80;;;;;;5056898;28;20307;-75
2023/05/28 05:14:26;;;;;;;6.97;2.00;;;15.40;76.70;;;;;;5053861;28;20235;-74
2023/05/28 05:17:15;;;;;;;6.32;2.20;;;15.50;75.90;;;;;;5060658;28;20216;-77
2023/05/28 05:20:08;;;;;;;5.88;2.03;;;15.50;76.00;;;;;;5043370;28;20220;-77
2023/05/28 05:22:58;;;;;;;6.22;1.90;;;15.60;75.50;;;;;;5062083;28;20743;-77
2023/05/28 05:25:47;;;;;;;5.15;1.90;;;15.80;75.80;;;;;;5057194;28;20220;-75
2023/05/28 05:28:36;;;;;;;5.10;2.03;;;15.90;74.20;;;;;;5069735;28;20322;-76
2023/05/28 05:31:26;;;;;;;4.63;2.05;;;16.30;73.50;;;;;;5065506;28;20219;-75
2023/05/28 05:34:15;;;;;;;9.18;2.13;;;16.30;72.30;;;;;;5046724;28;20302;-76
2023/05/28 05:37:27;;;;;;;5.88;1.88;;;16.90;71.90;;;;;;5042041;28;20228;-75
2023/05/28 05:40:28;;;;;;;7.20;1.98;;;17.40;71.40;;;;;;5070052;28;20228;-75
2023/05/28 05:43:34;;;;;;;3.85;1.70;;;17.20;69.30;;;;;;5051894;28;20271;-77
2023/05/28 05:46:23;;;;;;;6.25;1.63;;;17.00;70.50;;;;;;5070844;28;20297;-77
2023/05/28 05:49:13;;;;;;;7.75;2.08;;;16.40;70.10;;;;;;5076336;28;20220;-75
2023/05/28 05:52:03;;;;;;;6.20;1.90;;;16.30;71.90;;;;;;5060922;28;20226;-73
2023/05/28 05:54:55;;;;;;;5.38;2.08;;;16.30;73.00;;;;;;5051851;28;20301;-76
2023/05/28 05:57:49;;;;;;;6.40;1.90;;;16.10;72.70;;;;;;5054644;28;20690;-72
2023/05/28 06:00:38;;;;;;;7.70;2.08;;;16.50;75.40;;;;;;5057866;28;20218;-74
2023/05/28 06:03:29;;;;;;;3.10;1.60;;;16.70;74.20;;;;;;5080294;28;20231;-75
2023/05/28 06:06:32;;;;;;;2.45;1.63;;;17.40;72.80;;;;;;5070630;28;20322;-75
2023/05/28 06:09:39;;;;;;;4.18;1.83;;;17.30;72.20;;;;;;5056089;28;20247;-73
2023/05/28 06:12:52;;;;;;;7.85;1.85;;;17.20;71.70;;;;;;5053414;28;20216;-73
2023/05/28 06:15:42;;;;;;;3.83;2.03;;;17.10;73.00;;;;;;5060988;28;20647;-74
2023/05/28 06:18:31;;;;;;;5.28;1.90;;;17.20;73.00;;;;;;5038596;28;20330;-72
2023/05/28 06:21:21;;;;;;;6.15;1.63;;;17.00;72.00;;;;;;5077648;28;20227;-74
2023/05/28 06:24:11;;;;;;;3.42;1.90;;;17.10;72.50;;;;;;5044854;28;20628;-76
2023/05/28 06:27:03;;;;;;;4.22;1.65;;;16.90;71.00;;;;;;5065074;28;20223;-73
2023/05/28 06:29:53;;;;;;;6.78;1.80;;;16.90;73.50;;;;;;5072232;28;20227;-75
2023/05/28 06:32:43;;;;;;;3.17;1.60;;;16.90;73.10;;;;;;5058617;28;20228;-74
2023/05/28 06:35:32;;;;;;;4.75;1.60;;;16.90;73.10;;;;;;5085764;28;20283;-74
2023/05/28 06:38:22;;;;;;;3.53;1.60;;;17.10;73.00;;;;;;5061023;28;20232;-74
2023/05/28 06:41:11;;;;;;;6.55;1.40;;;17.30;73.10;;;;;;5063152;28;20234;-73
2023/05/28 06:44:05;;;;;;;4.75;1.48;;;17.50;70.70;;;;;;5068913;28;20238;-75
2023/05/28 06:47:24;;;;;;;4.88;1.30;;;17.70;71.30;;;;;;5060223;28;20240;-71
2023/05/28 06:50:13;;;;;;;3.28;1.40;;;17.60;69.60;;;;;;5055983;28;20234;-72
2023/05/28 06:53:03;;;;;;;7.30;1.58;;;17.80;70.10;;;;;;5044929;28;20224;-72
2023/05/28 06:55:51;;;;;;;4.15;1.40;;;17.60;69.00;;;;;;5051050;28;20779;-72
2023/05/28 06:58:59;;;;;;;5.75;1.85;;;17.70;68.70;;;;;;5059813;28;20220;-70
2023/05/28 07:02:21;;;;;;;4.80;1.42;;;17.90;69.20;;;;;;5055569;28;20322;-72
2023/05/28 07:05:20;;;;;;;2.95;1.15;;;17.90;68.30;;;;;;5050499;28;20216;-71
2023/05/28 07:08:13;;;;;;;4.75;1.50;;;18.50;67.50;;;;;;5048522;28;20360;-74
2023/05/28 07:11:02;;;;;;;4.40;1.20;;;18.60;68.50;;;;;;5059345;28;20229;-72
2023/05/28 07:13:52;;;;;;;6.32;1.30;;;18.60;63.00;;;;;;5054453;28;20316;-73
2023/05/28 07:16:42;;;;;;;5.32;1.20;;;18.90;63.70;;;;;;5061127;28;20247;-73
2023/05/28 07:19:31;;;;;;;6.80;1.67;;;19.30;63.20;;;;;;5055291;28;20227;-73
2023/05/28 07:22:21;;;;;;;3.13;1.30;;;19.10;60.60;;;;;;5057518;28;20697;-72
2023/05/28 07:25:10;;;;;;;5.40;1.33;;;18.80;62.50;;;;;;5061078;28;20227;-73
2023/05/28 07:27:59;;;;;;;5.18;1.33;;;19.30;62.90;;;;;;5058194;28;20212;-71
2023/05/28 07:30:53;;;;;;;3.95;1.15;;;19.70;61.50;;;;;;5064702;28;21067;-76
2023/05/28 07:33:42;;;;;;;4.93;1.30;;;20.20;62.90;;;;;;5065185;28;20316;-71
2023/05/28 07:36:31;;;;;;;5.60;1.25;;;20.50;60.00;;;;;;5070253;28;20273;-73
2023/05/28 07:39:25;;;;;;;3.50;1.20;;;20.80;62.20;;;;;;5064930;28;20231;-67
2023/05/28 07:42:15;;;;;;;3.72;1.30;;;21.30;59.90;;;;;;5062724;28;20232;-69
2023/05/28 07:45:05;;;;;;;6.60;1.10;;;21.50;58.30;;;;;;5059204;28;20220;-70
2023/05/28 07:47:55;;;;;;;4.07;1.13;;;21.90;56.60;;;;;;5053811;28;20213;-71
2023/05/28 07:50:59;;;;;;;3.75;1.20;;;21.80;55.10;;;;;;5067074;28;20265;-73
2023/05/28 07:54:10;;;;;;;4.45;1.23;;;21.80;55.00;;;;;;5056674;28;20331;-75
2023/05/28 07:57:02;;;;;;;2.00;0.95;;;21.60;56.70;;;;;;5051395;28;20235;-72
2023/05/28 08:00:00;;;;;;;4.88;1.10;;;21.60;56.50;;;;;;5075445;28;20227;-73
2023/05/28 08:02:51;;;;;;;2.67;1.10;;;21.00;56.00;;;;;;5043638;28;20246;-72
2023/05/28 08:05:42;;;;;;;5.15;1.17;;;21.60;57.60;;;;;;5043183;28;20251;-73
2023/05/28 08:08:31;;;;;;;6.55;1.35;;;22.00;58.00;;;;;;5055533;28;20262;-72
2023/05/28 08:11:21;;;;;;;1.75;1.10;;;22.20;56.20;;;;;;5052884;28;20438;-73
2023/05/28 08:14:11;;;;;;;5.50;1.40;;;22.40;54.90;;;;;;5046304;28;20304;-72
2023/05/28 08:17:03;;;;;;;3.50;1.10;;;22.80;54.70;;;;;;5045879;28;20231;-72
2023/05/28 08:20:05;;;;;;;2.30;1.02;;;23.10;55.50;;;;;;5080524;28;20228;-70
2023/05/28 08:23:02;;;;;;;3.17;1.20;;;23.60;53.00;;;;;;5067858;28;20228;-70
2023/05/28 08:25:51;;;;;;;4.00;1.17;;;23.30;52.70;;;;;;5069839;28;20224;-70
2023/05/28 08:28:49;;;;;;;3.15;1.40;;;23.60;52.60;;;;;;5058329;28;20246;-72
2023/05/28 08:31:39;;;;;;;3.25;1.25;;;23.40;52.30;;;;;;5065969;28;20389;-74
2023/05/28 08:34:44;;;;;;;7.75;1.30;;;24.00;54.20;;;;;;5066736;28;20243;-73
2023/05/28 08:37:33;;;;;;;5.53;1.27;;;24.40;52.10;;;;;;5059257;28;20362;-72
2023/05/28 08:40:39;;;;;;;5.15;1.30;;;24.60;52.50;;;;;;5056689;28;20215;-72
2023/05/28 08:43:30;;;;;;;4.88;1.50;;;24.90;52.60;;;;;;5061820;28;20228;-72
2023/05/28 08:46:20;;;;;;;4.28;1.50;;;25.10;52.70;;;;;;5075478;28;20606;-72
2023/05/28 08:49:32;;;;;;;4.35;1.30;;;24.40;50.60;;;;;;5074738;28;20231;-71
2023/05/28 08:52:25;;;;;;;2.15;1.10;;;23.80;50.70;;;;;;5065083;28;20307;-76
2023/05/28 08:55:15;;;;;;;2.80;1.08;;;24.20;51.80;;;;;;5045727;28;20265;-74
2023/05/28 08:58:08;;;;;;;2.20;1.50;;;24.50;52.80;;;;;;5044599;28;21013;-73
2023/05/28 09:01:01;;;;;;;4.18;1.30;;;25.10;52.60;;;;;;5066654;28;20220;-74
2023/05/28 09:04:02;;;;;;;6.43;1.30;;;24.80;50.50;;;;;;5064121;28;20267;-74
2023/05/28 09:06:58;;;;;;;1.88;1.17;;;25.20;52.50;;;;;;5057247;28;20461;-74
2023/05/28 09:09:59;;;;;;;3.45;1.38;;;25.00;50.20;;;;;;5066811;28;20223;-75
2023/05/28 09:12:59;;;;;;;4.43;1.38;;;24.50;51.90;;;;;;5066940;28;20222;-74
2023/05/28 09:15:51;;;;;;;2.25;1.30;;;25.50;50.50;;;;;;5048130;28;20275;-75
2023/05/28 09:18:40;;;;;;;4.45;1.50;;;25.50;50.50;;;;;;5054229;28;20266;-75
2023/05/28 09:21:32;;;;;;;6.82;1.58;;;25.50;51.30;;;;;;5056228;28;20651;-75
2023/05/28 09:24:25;;;;;;;4.88;1.63;;;25.90;49.40;;;;;;5047240;28;20288;-74
2023/05/28 09:27:45;;;;;;;5.75;1.40;;;25.90;48.50;;;;;;5058857;28;20224;-75
2023/05/28 09:30:37;;;;;;;6.35;1.38;;;26.30;49.30;;;;;;5082274;28;20712;-74
2023/05/28 09:33:26;;;;;;;3.50;1.40;;;26.90;48.20;;;;;;5070163;28;20224;-74
2023/05/28 09:36:17;;;;;;;4.18;1.40;;;27.00;48.30;;;;;;5055868;28;20315;-74
2023/05/28 09:39:10;;;;;;;3.88;1.63;;;26.20;48.60;;;;;;5083933;28;20574;-74
2023/05/28 09:42:05;;;;;;;7.60;1.83;;;27.40;48.60;;;;;;5068353;28;20219;-75
2023/05/28 09:44:54;;;;;;;5.32;1.77;;;28.10;49.10;;;;;;5060657;28;20343;-74
2023/05/28 09:47:44;;;;;;;4.97;1.60;;;29.00;48.30;;;;;;5063749;28;20243;-74
2023/05/28 09:50:33;;;;;;;8.32;2.22;;;30.20;46.50;;;;;;5057843;28;20583;-75
2023/05/28 09:53:23;;;;;;;6.80;1.73;;;29.80;47.10;;;;;;5051377;28;20236;-74
2023/05/28 09:56:14;;;;;;;5.25;2.03;;;30.40;45.90;;;;;;5073221;28;20572;-74
2023/05/28 09:59:07;;;;;;;3.13;1.65;;;31.40;44.60;;;;;;5061758;28;20216;-74
2023/05/28 10:02:01;;;;;;;6.53;2.22;;;32.00;44.00;;;;;;5071774;28;20721;-74
2023/05/28 10:04:55;;;;;;;5.38;2.00;;;32.30;42.60;;;;;;5062509;28;20235;-74
2023/05/28 10:07:46;;;;;;;5.13;1.80;;;32.60;42.20;;;;;;5063903;28;20223;-75
2023/05/28 10:10:36;;;;;;;5.13;1.50;;;30.70;41.50;;;;;;5055114;28;20227;-75
2023/05/28 10:13:26;;;;;;;3.95;1.83;;;31.90;43.20;;;;;;5064155;28;20312;-74
2023/05/28 10:16:19;;;;;;;3.28;1.80;;;32.40;43.00;;;;;;5080981;28;20778;-75
2023/05/28 10:19:08;;;;;;;5.25;1.40;;;33.60;42.40;;;;;;5061887;28;20678;-73
2023/05/28 10:21:58;;;;;;;3.65;1.80;;;34.50;40.80;;;;;;5063915;28;20219;-74
2023/05/28 10:24:51;;;;;;;5.30;1.50;;;35.50;41.20;;;;;;5070075;28;20220;-74
2023/05/28 10:27:48;;;;;;;7.55;1.90;;;35.10;40.20;;;;;;5065542;28;20319;-73
2023/05/28 10:30:38;;;;;;;6.28;2.00;;;34.60;41.10;;;;;;5071523;28;20219;-73
2023/05/28 10:33:29;;;;;;;4.80;1.60;;;35.70;41.00;;;;;;5068116;28;20302;-72
2023/05/28 10:36:19;;;;;;;4.63;1.80;;;35.40;38.80;;;;;;5064957;28;20713;-73
2023/05/28 10:39:08;;;;;;;5.20;1.50;;;36.80;39.80;;;;;;5067576;28;20216;-73
2023/05/28 10:41:58;;;;;;;10.85;1.80;;;36.60;38.70;;;;;;5050569;28;20283;-73
2023/05/28 10:44:51;;;;;;;7.22;1.90;;;37.20;37.80;;;;;;5064755;28;20614;-73
2023/05/28 10:47:41;;;;;;;4.40;1.50;;;37.50;39.40;;;;;;5053265;28;20228;-74
2023/05/28 10:50:32;;;;;;;4.43;1.60;;;38.30;38.20;;;;;;5072925;28;20253;-75
2023/05/28 10:53:21;;;;;;;4.15;1.63;;;38.10;37.40;;;;;;5062700;28;20215;-75
2023/05/28 10:56:11;;;;;;;4.50;1.95;;;38.90;37.50;;;;;;5057649;28;20903;-72
2023/05/28 10:59:00;;;;;;;3.05;1.70;;;39.30;37.40;;;;;;5061278;28;20220;-73
2023/05/28 11:02:04;;;;;;;10.57;1.50;;;39.00;36.10;;;;;;5057773;28;20406;-74
2023/05/28 11:04:55;;;;;;;3.00;1.60;;;37.90;36.40;;;;;;5059156;28;20235;-74
2023/05/28 11:07:45;;;;;;;5.35;1.73;;;38.00;35.20;;;;;;5067807;28;20219;-74
2023/05/28 11:10:35;;;;;;;2.55;1.52;;;38.50;37.70;;;;;;5060132;28;21015;-73
2023/05/28 11:13:26;;;;;;;4.15;1.48;;;40.00;37.30;;;;;;5057775;28;20223;-74
2023/05/28 11:16:17;;;;;;;5.22;1.25;;;39.30;35.60;;;;;;5055781;28;20228;-73
2023/05/28 11:19:09;;;;;;;5.57;1.80;;;36.50;36.30;;;;;;5063349;28;20651;-74
2023/05/28 11:21:58;;;;;;;4.80;1.50;;;36.40;36.20;;;;;;5066287;28;20239;-73
2023/05/28 11:24:55;;;;;;;11.88;1.70;;;37.60;35.70;;;;;;5067201;28;20228;-75
2023/05/28 11:27:45;;;;;;;2.85;1.52;;;39.30;35.60;;;;;;5066655;28;20223;-74
2023/05/28 11:30:34;;;;;;;5.47;1.20;;;40.50;34.50;;;;;;5068116;28;20583;-72
2023/05/28 11:33:23;;;;;;;5.53;1.83;;;40.90;34.70;;;;;;5059953;28;20910;-74
2023/05/28 11:36:15;;;;;;;5.28;1.40;;;40.20;34.20;;;;;;5059145;28;20313;-74
2023/05/28 11:39:04;;;;;;;5.07;1.48;;;40.90;34.20;;;;;;5070326;28;20548;-76
2023/05/28 11:41:54;;;;;;;7.90;1.60;;;41.80;34.30;;;;;;5056206;28;20227;-74
2023/05/28 11:44:45;;;;;;;5.60;1.50;;;43.10;33.20;;;;;;5067661;28;20305;-75
2023/05/28 11:47:36;;;;;;;5.30;1.30;;;42.30;33.60;;;;;;5070101;28;20292;-75
2023/05/28 11:50:26;;;;;;;4.20;1.45;;;41.30;33.10;;;;;;5069885;28;20227;-75
2023/05/28 11:53:14;;;;;;;3.10;1.60;;;42.20;34.40;;;;;;5060615;28;20353;-74
2023/05/28 11:56:03;;;;;;;4.70;1.60;;;43.10;34.50;;;;;;5062287;28;20226;-75
2023/05/28 11:58:54;;;;;;;10.10;1.80;;;43.90;32.10;;;;;;5063758;28;20281;-74
2023/05/28 12:01:43;;;;;;;9.07;1.50;;;43.40;33.40;;;;;;5064660;28;20243;-74
2023/05/28 12:04:32;;;;;;;6.50;1.90;;;42.40;33.80;;;;;;5058057;28;20226;-74
2023/05/28 12:07:21;;;;;;;8.77;1.70;;;41.80;33.50;;;;;;5064893;28;20299;-75
2023/05/28 12:10:11;;;;;;;3.15;1.45;;;40.60;32.10;;;;;;5061634;28;20226;-74
2023/05/28 12:13:02;;;;;;;6.53;1.30;;;40.60;33.10;;;;;;5061238;28;20298;-74
2023/05/28 12:15:52;;;;;;;4.07;1.58;;;40.20;32.80;;;;;;5083183;28;20594;-74
2023/05/28 12:18:42;;;;;;;3.05;1.60;;;40.70;33.90;;;;;;5058157;28;20219;-74
2023/05/28 12:21:35;;;;;;;5.50;1.42;;;41.80;34.20;;;;;;5061777;28;20223;-75
2023/05/28 12:24:28;;;;;;;5.13;1.50;;;42.30;32.50;;;;;;5067691;28;20220;-74
2023/05/28 12:27:17;;;;;;;5.28;1.40;;;41.40;33.00;;;;;;5067188;28;20615;-74
2023/05/28 12:30:07;;;;;;;7.70;1.40;;;41.50;32.50;;;;;;5067323;28;20710;-74
2023/05/28 12:32:57;;;;;;;4.57;1.63;;;41.60;33.20;;;;;;5074153;28;20223;-74
2023/05/28 12:35:46;;;;;;;2.22;1.60;;;41.40;33.70;;;;;;5077003;28;20231;-74
2023/05/28 12:38:35;;;;;;;5.50;1.65;;;40.40;32.90;;;;;;5058270;28;20224;-74
2023/05/28 12:41:25;;;;;;;7.05;1.80;;;40.10;32.90;;;;;;5059651;28;20346;-74
2023/05/28 12:44:13;;;;;;;1.50;1.30;;;38.10;33.30;;;;;;5075255;28;20298;-74
2023/05/28 12:47:02;;;;;;;6.95;1.67;;;35.70;36.20;;;;;;5086965;28;20222;-75
2023/05/28 12:49:52;;;;;;;5.47;1.58;;;32.80;37.10;;;;;;5079288;28;20219;-74
2023/05/28 12:52:41;;;;;;;5.60;1.30;;;31.30;39.90;;;;;;5064101;28;20249;-74
2023/05/28 12:55:30;;;;;;;4.18;1.60;;;30.00;41.00;;;;;;5042498;28;20366;-74
2023/05/28 12:58:19;;;;;;;5.43;1.42;;;28.50;42.00;;;;;;5058020;28;20246;-74
2023/05/28 13:01:08;;;;;;;6.35;1.88;;;27.40;42.90;;;;;;5046102;28;20312;-74
2023/05/28 13:03:57;;;;;;;3.25;1.30;;;27.10;43.60;;;;;;5079695;28;20215;-74
2023/05/28 13:06:47;;;;;;;9.60;1.58;;;26.90;45.20;;;;;;5081857;28;20227;-75
2023/05/28 13:09:36;;;;;;;2.15;1.50;;;26.70;45.10;;;;;;5081959;28;20275;-75
2023/05/28 13:12:25;;;;;;;4.93;1.40;;;26.60;45.80;;;;;;5076937;28;20215;-73
2023/05/28 13:15:14;;;;;;;4.85;1.52;;;26.10;45.80;;;;;;5064868;28;20253;-75
2023/05/28 13:18:03;;;;;;;6.25;1.50;;;25.20;46.50;;;;;;5063588;28;20230;-75
2023/05/28 13:20:53;;;;;;;3.47;1.55;;;24.40;48.10;;;;;;5057237;28;20703;-75
2023/05/28 13:23:43;;;;;;;3.30;1.50;;;23.60;49.10;;;;;;5072361;28;20227;-75
2023/05/28 13:26:35;;;;;;;4.30;1.98;;;24.40;49.90;;;;;;5073564;28;20230;-75
2023/05/28 13:29:24;;;;;;;4.35;1.63;;;24.50;48.90;;;;;;5068996;28;20246;-74
2023/05/28 13:32:13;;;;;;;4.18;1.50;;;24.20;49.30;;;;;;5064516;28;20633;-75
2023/05/28 13:35:02;;;;;;;4.85;1.80;;;24.30;48.50;;;;;;5079846;28;20227;-75
2023/05/28 13:37:51;;;;;;;4.70;1.25;;;24.20;48.80;;;;;;5074096;28;20762;-74
2023/05/28 13:40:41;;;;;;;3.72;1.20;;;24.40;50.10;;;;;;5089061;28;20265;-74
2023/05/28 13:43:31;;;;;;;4.50;1.45;;;24.40;48.60;;;;;;5054933;28;20910;-74
2023/05/28 13:46:24;;;;;;;3.58;1.58;;;24.50;50.00;;;;;;5062089;28;20273;-73
2023/05/28 13:49:13;;;;;;;7.65;1.65;;;24.30;48.90;;;;;;5062723;28;20239;-74
2023/05/28 13:52:02;;;;;;;8.60;1.83;;;24.10;49.40;;;;;;5049897;28;20315;-74
2023/05/28 13:54:51;;;;;;;4.07;1.60;;;23.20;49.40;;;;;;5069749;28;20239;-74
2023/05/28 13:57:42;;;;;;;5.95;1.75;;;23.30;49.90;;;;;;5057621;28;20220;-75
2023/05/28 14:00:31;;;;;;;4.30;1.50;;;23.40;50.60;;;;;;5051101;28;20342;-76
2023/05/28 14:03:26;;;;;;;3.20;1.45;;;23.60;50.70;;;;;;5049852;28;20235;-76
2023/05/28 14:06:16;;;;;;;2.88;1.60;;;23.50;50.50;;;;;;5057654;28;20718;-74
2023/05/28 14:09:05;;;;;;;5.10;1.40;;;23.30;50.90;;;;;;5067428;28;20249;-74
2023/05/28 14:11:55;;;;;;;2.40;1.40;;;23.00;50.80;;;;;;5079095;28;20598;-73
2023/05/28 14:14:48;;;;;;;4.65;1.52;;;23.10;50.60;;;;;;5072247;28;20257;-75
2023/05/28 14:17:37;;;;;;;4.10;2.30;;;23.20;51.30;;;;;;5055244;28;20290;-76
2023/05/28 14:20:26;;;;;;;3.38;1.60;;;23.10;52.00;;;;;;5068032;28;20219;-74
2023/05/28 14:23:15;;;;;;;8.52;2.55;;;22.90;51.00;;;;;;5063152;28;20216;-76
2023/05/28 14:26:04;;;;;;;6.13;1.58;;;22.90;51.20;;;;;;5062732;28;20227;-78
2023/05/28 14:28:54;;;;;;;5.55;1.40;;;23.10;51.00;;;;;;5050817;28;21965;-74
2023/05/28 14:31:44;;;;;;;6.78;2.30;;;23.10;51.00;;;;;;5059622;28;20349;-74
2023/05/28 14:34:33;;;;;;;1.75;1.27;;;23.00;50.90;;;;;;5030271;28;20228;-75
2023/05/28 14:37:22;;;;;;;8.35;2.30;;;23.10;52.00;;;;;;5047685;28;20307;-75
2023/05/28 14:40:12;;;;;;;4.65;1.55;;;22.70;50.80;;;;;;5041858;28;20228;-72
2023/05/28 14:43:02;;;;;;;8.10;1.75;;;22.50;51.00;;;;;;5054002;28;20684;-73
2023/05/28 14:45:50;;;;;;;4.28;1.63;;;22.60;51.80;;;;;;5060635;28;20675;-72
2023/05/28 14:48:41;;;;;;;4.10;1.60;;;22.50;52.80;;;;;;5064101;28;20799;-73
2023/05/28 14:51:31;;;;;;;5.82;1.70;;;22.60;51.30;;;;;;5072316;28;20239;-72